Time;durP1;ratioP1;P1;durP2;ratioP2;P2;SDS_P1;SDS_P2;PMS_P1;PMS_P2;Temp;Humidity;BMP_temperature;BMP_pressure;BME280_temperature;BME280_humidity;BME280_pressure;Samples;Min_cycle;Max_cycle;Signal;HPM_P1;HPM_P2
2021/04/13 00:01:14;;;;;;;14.43;4.57;;;;;;;;;;4912515;29;20046;-79
2021/04/13 00:03:44;;;;;;;17.05;5.07;;;;;;;;;;4897150;29;20567;-78
2021/04/13 00:06:12;;;;;;;16.52;5.38;;;;;;;;;;4905731;28;20043;-80
2021/04/13 00:08:39;;;;;;;19.45;5.90;;;;;;;;;;4899112;29;20551;-79
2021/04/13 00:11:08;;;;;;;14.65;5.25;;;;;;;;;;4912508;29;20039;-80
2021/04/13 00:13:37;;;;;;;15.73;5.20;;;;;;;;;;4915429;29;20095;-79
2021/04/13 00:16:08;;;;;;;15.35;5.72;;;;;;;;;;4903271;29;20082;-79
2021/04/13 00:18:35;;;;;;;12.85;5.07;;;;;;;;;;4924236;29;20120;-79
2021/04/13 00:21:03;;;;;;;14.85;5.22;;;;;;;;;;4940079;28;20092;-80
2021/04/13 00:23:29;;;;;;;14.93;5.95;;;;;;;;;;4909834;29;20043;-79
2021/04/13 00:25:57;;;;;;;15.07;5.70;;;;;;;;;;4938863;28;20035;-79
2021/04/13 00:28:28;;;;;;;15.07;5.80;;;;;;;;;;4995850;28;20104;-79
2021/04/13 00:30:58;;;;;;;15.90;5.85;;;;;;;;;;4993601;28;20109;-79
2021/04/13 00:33:26;;;;;;;14.98;5.60;;;;;;;;;;4996431;28;20037;-79
2021/04/13 00:36:13;;;;;;;14.88;6.07;;;;;;;;;;4993083;28;20048;-79
2021/04/13 00:38:46;;;;;;;13.73;4.65;;;;;;;;;;5001911;28;20056;-79
2021/04/13 00:41:23;;;;;;;15.73;4.00;;;;;;;;;;5010001;28;20025;-79
2021/04/13 00:43:53;;;;;;;13.85;4.30;;;;;;;;;;5017901;28;20452;-78
2021/04/13 00:46:28;;;;;;;11.32;4.00;;;;;;;;;;4998582;28;20034;-79
2021/04/13 00:48:55;;;;;;;16.05;4.28;;;;;;;;;;5011328;28;20547;-79
2021/04/13 00:51:24;;;;;;;19.15;5.53;;;;;;;;;;5004883;28;20036;-80
2021/04/13 00:53:53;;;;;;;16.83;5.32;;;;;;;;;;5015905;28;20017;-81
2021/04/13 00:56:20;;;;;;;17.15;5.50;;;;;;;;;;5010245;28;20028;-78
2021/04/13 00:58:48;;;;;;;16.45;5.65;;;;;;;;;;5009344;28;20029;-79
2021/04/13 01:01:29;;;;;;;14.13;5.32;;;;;;;;;;5009050;28;20517;-78
2021/04/13 01:04:04;;;;;;;15.13;4.85;;;;;;;;;;5012666;28;20022;-79
2021/04/13 01:06:31;;;;;;;14.60;4.82;;;;;;;;;;5015994;28;20033;-78
2021/04/13 01:09:10;;;;;;;14.23;4.30;;;;;;;;;;5009470;28;20025;-79
2021/04/13 01:11:44;;;;;;;14.35;4.72;;;;;;;;;;5017199;28;20025;-79
2021/04/13 01:14:11;;;;;;;15.85;5.13;;;;;;;;;;5011774;28;20548;-78
2021/04/13 01:16:41;;;;;;;14.80;4.50;;;;;;;;;;5018432;28;20013;-78
2021/04/13 01:19:28;;;;;;;14.30;4.18;;;;;;;;;;5009970;28;20449;-79
2021/04/13 01:22:06;;;;;;;16.65;4.75;;;;;;;;;;4968053;28;20448;-79
2021/04/13 01:24:36;;;;;;;12.30;3.70;;;;;;;;;;5014581;28;20029;-81
2021/04/13 01:27:08;;;;;;;14.15;4.00;;;;;;;;;;5009618;28;20563;-81
2021/04/13 01:29:35;;;;;;;12.13;4.20;;;;;;;;;;5013477;28;20049;-81
2021/04/13 01:32:02;;;;;;;15.38;3.70;;;;;;;;;;4992603;28;20123;-80
2021/04/13 01:34:40;;;;;;;10.52;3.10;;;;;;;;;;5017570;28;20037;-81
2021/04/13 01:37:14;;;;;;;14.38;3.67;;;;;;;;;;5020744;28;20057;-81
2021/04/13 01:40:04;;;;;;;14.88;3.17;;;;;;;;;;5010306;28;20052;-80
2021/04/13 01:42:31;;;;;;;11.93;2.92;;;;;;;;;;5017884;28;20777;-79
2021/04/13 01:45:04;;;;;;;15.02;3.05;;;;;;;;;;5009459;28;20348;-80
2021/04/13 01:47:30;;;;;;;13.05;2.60;;;;;;;;;;5013183;28;20128;-80
2021/04/13 01:50:08;;;;;;;11.18;2.65;;;;;;;;;;5016375;28;20029;-80
2021/04/13 01:52:36;;;;;;;10.68;2.55;;;;;;;;;;5009222;28;20030;-80
2021/04/13 01:55:09;;;;;;;12.27;2.97;;;;;;;;;;5009738;28;20375;-78
2021/04/13 01:57:42;;;;;;;10.55;2.47;;;;;;;;;;5012331;28;20807;-80
2021/04/13 02:00:16;;;;;;;8.98;2.53;;;;;;;;;;5005139;28;20040;-80
2021/04/13 02:02:51;;;;;;;14.75;3.15;;;;;;;;;;5011820;28;20017;-81
2021/04/13 02:05:20;;;;;;;13.02;2.90;;;;;;;;;;5008023;28;20647;-80
2021/04/13 02:08:04;;;;;;;11.18;2.53;;;;;;;;;;5015055;28;20425;-78
2021/04/13 02:10:38;;;;;;;11.48;2.60;;;;;;;;;;5008808;28;20380;-80
2021/04/13 02:13:11;;;;;;;12.35;2.85;;;;;;;;;;5007706;28;20032;-80
2021/04/13 02:15:40;;;;;;;10.23;2.33;;;;;;;;;;5011474;28;20041;-80
2021/04/13 02:18:20;;;;;;;11.30;2.53;;;;;;;;;;4987927;28;20025;-80
2021/04/13 02:20:48;;;;;;;8.52;2.30;;;;;;;;;;5010794;28;20023;-80
2021/04/13 02:23:15;;;;;;;12.25;2.95;;;;;;;;;;5000373;28;20064;-80
2021/04/13 02:25:41;;;;;;;13.15;2.42;;;;;;;;;;5010506;28;20030;-80
2021/04/13 02:28:08;;;;;;;11.75;2.88;;;;;;;;;;5007598;28;20144;-80
2021/04/13 02:30:37;;;;;;;8.60;2.03;;;;;;;;;;5012008;28;20945;-79
2021/04/13 02:33:08;;;;;;;11.18;2.47;;;;;;;;;;5008597;28;20086;-79
2021/04/13 02:35:36;;;;;;;9.90;2.38;;;;;;;;;;5006765;28;20053;-78
2021/04/13 02:38:05;;;;;;;10.77;2.47;;;;;;;;;;4986059;28;20035;-78
2021/04/13 02:40:56;;;;;;;11.27;2.20;;;;;;;;;;4985124;28;20022;-78
2021/04/13 02:43:32;;;;;;;9.57;2.22;;;;;;;;;;5002929;28;20121;-80
2021/04/13 02:46:02;;;;;;;9.85;2.55;;;;;;;;;;4982355;28;20038;-78
2021/04/13 02:48:40;;;;;;;10.82;2.65;;;;;;;;;;5002751;28;20474;-78
2021/04/13 02:51:09;;;;;;;10.88;2.25;;;;;;;;;;4991936;28;20030;-81
2021/04/13 02:53:54;;;;;;;11.85;2.30;;;;;;;;;;4982110;28;20710;-80
2021/04/13 02:56:28;;;;;;;10.73;2.03;;;;;;;;;;4989456;28;20060;-80
2021/04/13 02:59:16;;;;;;;9.38;2.33;;;;;;;;;;4973373;28;20666;-81
2021/04/13 03:02:04;;;;;;;9.90;2.08;;;;;;;;;;4980578;28;20033;-79
2021/04/13 03:04:36;;;;;;;7.55;1.90;;;;;;;;;;4968554;28;20401;-79
2021/04/13 03:07:05;;;;;;;8.82;2.00;;;;;;;;;;4980268;28;20034;-80
2021/04/13 03:09:36;;;;;;;10.68;1.90;;;;;;;;;;4986683;28;20034;-80
2021/04/13 03:12:06;;;;;;;8.13;1.90;;;;;;;;;;4963305;28;20128;-80
2021/04/13 03:14:36;;;;;;;9.38;2.10;;;;;;;;;;4968038;28;20046;-81
2021/04/13 03:17:07;;;;;;;9.30;2.08;;;;;;;;;;4981454;28;20072;-80
2021/04/13 03:19:35;;;;;;;8.65;2.00;;;;;;;;;;4967781;28;20032;-80
2021/04/13 03:22:04;;;;;;;9.93;2.10;;;;;;;;;;4983176;28;20037;-80
2021/04/13 03:24:34;;;;;;;12.48;2.20;;;;;;;;;;4984018;28;20072;-80
2021/04/13 03:27:04;;;;;;;9.77;1.80;;;;;;;;;;4971033;28;20042;-80
2021/04/13 03:29:34;;;;;;;10.77;1.90;;;;;;;;;;4986300;28;20393;-80
2021/04/13 03:32:02;;;;;;;11.35;2.20;;;;;;;;;;4963966;28;20086;-79
2021/04/13 03:34:31;;;;;;;9.73;1.85;;;;;;;;;;4980982;28;20046;-80
2021/04/13 03:37:03;;;;;;;12.75;2.40;;;;;;;;;;4969930;28;20382;-79
2021/04/13 03:39:35;;;;;;;15.85;2.70;;;;;;;;;;4987098;28;20425;-79
2021/04/13 03:42:06;;;;;;;9.15;1.85;;;;;;;;;;4985320;28;20022;-80
2021/04/13 03:44:37;;;;;;;8.55;2.17;;;;;;;;;;4983907;28;20107;-80
2021/04/13 03:47:10;;;;;;;11.90;2.22;;;;;;;;;;4963044;28;20478;-80
2021/04/13 03:49:38;;;;;;;12.98;2.30;;;;;;;;;;4988287;28;20767;-79
2021/04/13 03:52:25;;;;;;;9.50;2.35;;;;;;;;;;4994868;28;20441;-80
2021/04/13 03:54:51;;;;;;;10.63;2.10;;;;;;;;;;4987164;28;20056;-80
2021/04/13 03:57:18;;;;;;;;;;;;;;;;;;4998966;28;20816;-79
2021/04/13 03:59:55;;;;;;;9.63;2.13;;;;;;;;;;4988459;28;19921;-80
2021/04/13 04:02:21;;;;;;;;;;;;;;;;;;4979577;28;20034;-80
2021/04/13 04:04:48;;;;;;;11.35;2.28;;;;;;;;;;4988150;28;19916;-79
2021/04/13 04:07:22;;;;;;;9.27;2.20;;;;;;;;;;4983705;28;20118;-80
2021/04/13 04:09:49;;;;;;;11.77;2.40;;;;;;;;;;5002159;28;20033;-80
2021/04/13 04:12:20;;;;;;;9.50;2.53;;;;;;;;;;5000577;28;20037;-79
2021/04/13 04:15:03;;;;;;;8.43;2.35;;;;;;;;;;4968959;28;20125;-79
2021/04/13 04:17:38;;;;;;;9.10;2.33;;;;;;;;;;4988130;28;20026;-80
2021/04/13 04:20:06;;;;;;;9.23;2.15;;;;;;;;;;4983370;28;20034;-80
2021/04/13 04:22:36;;;;;;;10.55;2.60;;;;;;;;;;4988351;28;20049;-79
2021/04/13 04:25:18;;;;;;;10.63;2.80;;;;;;;;;;5002286;28;20029;-80
2021/04/13 04:27:46;;;;;;;11.07;3.05;;;;;;;;;;5003336;28;20049;-79
2021/04/13 04:30:35;;;;;;;10.95;2.45;;;;;;;;;;5006476;28;20057;-80
2021/04/13 04:33:04;;;;;;;9.43;2.60;;;;;;;;;;4983347;28;20504;-80
2021/04/13 04:35:43;;;;;;;10.43;3.08;;;;;;;;;;4988934;28;20085;-79
2021/04/13 04:38:29;;;;;;;10.50;3.58;;;;;;;;;;5005873;28;20037;-79
2021/04/13 04:41:06;;;;;;;15.77;4.60;;;;;;;;;;5016156;28;20429;-79
2021/04/13 04:43:39;;;;;;;15.57;3.67;;;;;;;;;;5024091;28;20592;-79
2021/04/13 04:46:08;;;;;;;10.35;3.25;;;;;;;;;;5016241;28;20044;-79
2021/04/13 04:48:42;;;;;;;11.23;3.40;;;;;;;;;;5005005;28;20112;-80
2021/04/13 04:51:11;;;;;;;12.35;3.28;;;;;;;;;;5003480;28;20100;-79
2021/04/13 04:53:38;;;;;;;12.75;3.28;;;;;;;;;;5005605;28;20029;-80
2021/04/13 04:56:12;;;;;;;11.93;3.38;;;;;;;;;;5007093;28;20052;-80
2021/04/13 04:58:40;;;;;;;13.27;3.40;;;;;;;;;;5007828;28;20040;-79
2021/04/13 05:01:07;;;;;;;15.98;3.78;;;;;;;;;;5002643;28;20035;-80
2021/04/13 05:03:34;;;;;;;18.15;4.25;;;;;;;;;;5010221;28;20075;-79
2021/04/13 05:06:02;;;;;;;12.48;2.65;;;;;;;;;;4991582;28;20052;-80
2021/04/13 05:08:29;;;;;;;8.82;2.15;;;;;;;;;;5005450;28;20080;-80
2021/04/13 05:10:59;;;;;;;8.75;1.83;;;;;;;;;;4994927;28;20050;-79
2021/04/13 05:13:27;;;;;;;8.05;2.00;;;;;;;;;;5019603;28;20034;-80
2021/04/13 05:15:53;;;;;;;10.80;2.42;;;;;;;;;;5010823;28;20033;-80
2021/04/13 05:18:21;;;;;;;8.07;2.08;;;;;;;;;;5004268;28;20025;-80
2021/04/13 05:20:50;;;;;;;8.48;2.30;;;;;;;;;;5006825;28;20025;-80
2021/04/13 05:23:21;;;;;;;9.20;1.85;;;;;;;;;;5004703;28;20033;-81
2021/04/13 05:25:49;;;;;;;7.25;1.90;;;;;;;;;;5011822;28;20037;-80
2021/04/13 05:28:18;;;;;;;9.23;2.10;;;;;;;;;;4999320;28;20038;-80
2021/04/13 05:30:48;;;;;;;8.80;2.05;;;;;;;;;;5008639;28;20489;-80
2021/04/13 05:33:15;;;;;;;8.82;2.17;;;;;;;;;;5000866;28;20152;-80
2021/04/13 05:35:48;;;;;;;9.18;2.00;;;;;;;;;;4993332;28;20050;-80
2021/04/13 05:38:25;;;;;;;10.15;2.50;;;;;;;;;;4982167;28;20487;-80
2021/04/13 05:40:57;;;;;;;9.32;2.17;;;;;;;;;;4967468;28;20030;-80
2021/04/13 05:43:26;;;;;;;9.18;2.15;;;;;;;;;;4963972;28;20023;-79
2021/04/13 05:46:01;;;;;;;10.80;2.50;;;;;;;;;;4980569;28;20069;-80
2021/04/13 05:48:30;;;;;;;9.05;2.63;;;;;;;;;;4966534;28;20041;-79
2021/04/13 05:50:57;;;;;;;11.98;2.90;;;;;;;;;;4969551;28;20134;-79
2021/04/13 05:53:26;;;;;;;15.50;3.78;;;;;;;;;;4981686;28;20038;-78
2021/04/13 05:55:53;;;;;;;13.23;3.42;;;;;;;;;;4967723;28;20190;-79
2021/04/13 05:58:21;;;;;;;12.50;3.20;;;;;;;;;;4971928;28;20081;-78
2021/04/13 06:00:51;;;;;;;11.93;3.03;;;;;;;;;;4964506;28;20022;-79
2021/04/13 06:03:20;;;;;;;12.55;4.20;;;;;;;;;;4929451;28;21150;-80
2021/04/13 06:05:49;;;;;;;14.45;3.65;;;;;;;;;;4950218;28;20125;-78
2021/04/13 06:08:18;;;;;;;13.75;3.50;;;;;;;;;;4957842;28;20414;-81
2021/04/13 06:10:49;;;;;;;14.63;3.60;;;;;;;;;;4950850;28;20046;-79
2021/04/13 06:13:19;;;;;;;13.60;3.90;;;;;;;;;;4944780;28;20049;-79
2021/04/13 06:15:45;;;;;;;11.73;3.30;;;;;;;;;;4950811;28;20038;-79
2021/04/13 06:18:13;;;;;;;13.75;3.20;;;;;;;;;;4956684;28;20033;-79
2021/04/13 06:20:42;;;;;;;15.38;6.38;;;;;;;;;;4947984;28;20034;-79
2021/04/13 06:23:09;;;;;;;19.75;7.22;;;;;;;;;;4961095;28;20022;-80
2021/04/13 06:25:39;;;;;;;12.57;4.50;;;;;;;;;;4966557;28;20026;-80
2021/04/13 06:28:06;;;;;;;13.00;4.07;;;;;;;;;;4947160;28;20491;-80
2021/04/13 06:30:37;;;;;;;16.50;5.70;;;;;;;;;;4966537;28;20030;-79
2021/04/13 06:33:04;;;;;;;12.75;4.22;;;;;;;;;;4957660;28;20034;-81
2021/04/13 06:35:34;;;;;;;15.88;5.07;;;;;;;;;;4967058;28;20054;-79
2021/04/13 06:38:07;;;;;;;13.32;4.57;;;;;;;;;;4968452;28;20041;-82
2021/04/13 06:40:52;;;;;;;10.27;4.32;;;;;;;;;;4969169;28;20026;-80
2021/04/13 06:43:34;;;;;;;16.05;5.75;;;;;;;;;;4968680;28;20926;-81
2021/04/13 06:46:17;;;;;;;18.85;5.57;;;;;;;;;;4985744;28;20561;-82
2021/04/13 06:48:55;;;;;;;15.00;5.43;;;;;;;;;;5000678;28;20056;-80
2021/04/13 06:51:38;;;;;;;17.80;4.85;;;;;;;;;;4984762;28;20394;-81
2021/04/13 06:54:06;;;;;;;19.90;7.05;;;;;;;;;;4982913;28;20080;-82
2021/04/13 06:56:40;;;;;;;19.13;6.70;;;;;;;;;;5006005;28;20129;-81
2021/04/13 06:59:13;;;;;;;19.23;5.75;;;;;;;;;;4998739;28;20101;-80
2021/04/13 07:01:53;;;;;;;21.83;6.50;;;;;;;;;;4990397;28;20476;-81
2021/04/13 07:04:26;;;;;;;21.38;9.35;;;;;;;;;;4982932;28;20864;-80
2021/04/13 07:06:59;;;;;;;22.23;8.30;;;;;;;;;;4983245;28;20052;-82
2021/04/13 07:09:47;;;;;;;17.75;7.53;;;;;;;;;;4991144;28;20073;-80
2021/04/13 07:12:26;;;;;;;22.52;8.52;;;;;;;;;;4998738;28;20042;-81
2021/04/13 07:15:02;;;;;;;17.63;7.53;;;;;;;;;;4992782;28;20104;-80
2021/04/13 07:17:36;;;;;;;17.17;6.97;;;;;;;;;;5007351;28;20330;-80
2021/04/13 07:20:08;;;;;;;19.77;5.95;;;;;;;;;;4979741;28;20038;-80
2021/04/13 07:22:38;;;;;;;19.48;6.75;;;;;;;;;;5009471;28;21242;-81
2021/04/13 07:25:23;;;;;;;14.73;5.25;;;;;;;;;;4995662;28;20033;-81
2021/04/13 07:27:54;;;;;;;14.23;4.35;;;;;;;;;;5001181;28;20036;-78
2021/04/13 07:30:39;;;;;;;14.60;3.92;;;;;;;;;;4982617;28;20048;-81
2021/04/13 07:33:10;;;;;;;14.40;3.80;;;;;;;;;;4981623;28;20045;-82
2021/04/13 07:35:39;;;;;;;13.02;4.22;;;;;;;;;;5000520;28;20058;-81
2021/04/13 07:38:13;;;;;;;13.73;4.10;;;;;;;;;;4980786;28;21046;-80
2021/04/13 07:40:41;;;;;;;11.77;3.70;;;;;;;;;;4990834;28;20046;-79
2021/04/13 07:43:21;;;;;;;14.98;4.22;;;;;;;;;;4982436;28;20404;-80
2021/04/13 07:45:57;;;;;;;13.73;4.68;;;;;;;;;;4988099;28;20049;-79
2021/04/13 07:48:37;;;;;;;16.60;4.50;;;;;;;;;;4985914;28;20108;-79
2021/04/13 07:51:23;;;;;;;15.32;4.50;;;;;;;;;;4994891;28;20750;-79
2021/04/13 07:54:08;;;;;;;15.15;4.25;;;;;;;;;;4999093;28;20208;-79
2021/04/13 07:56:35;;;;;;;16.23;5.18;;;;;;;;;;5001013;28;20037;-80
2021/04/13 07:59:09;;;;;;;14.98;3.70;;;;;;;;;;4996072;28;20034;-79
2021/04/13 08:01:37;;;;;;;14.27;4.10;;;;;;;;;;5001983;28;20547;-79
2021/04/13 08:04:04;;;;;;;25.02;4.15;;;;;;;;;;5016738;28;20041;-80
2021/04/13 08:06:34;;;;;;;55.42;6.05;;;;;;;;;;5004484;28;20103;-79
2021/04/13 08:09:19;;;;;;;29.98;4.25;;;;;;;;;;5014833;28;20037;-79
2021/04/13 08:12:05;;;;;;;15.95;3.60;;;;;;;;;;4986697;28;20181;-80
2021/04/13 08:14:37;;;;;;;14.02;3.60;;;;;;;;;;4999801;28;20044;-79
2021/04/13 08:17:21;;;;;;;13.85;4.32;;;;;;;;;;4997938;28;20045;-79
2021/04/13 08:20:09;;;;;;;19.23;4.35;;;;;;;;;;5001188;28;20041;-79
2021/04/13 08:23:03;;;;;;;15.45;4.22;;;;;;;;;;5001614;28;20743;-78
2021/04/13 08:25:43;;;;;;;11.13;3.17;;;;;;;;;;5000124;28;20512;-78
2021/04/13 08:28:19;;;;;;;13.93;3.60;;;;;;;;;;4982245;28;20041;-80
2021/04/13 08:32:49;;;;;;;14.07;4.88;;;;;;;;;;5003133;28;20030;-79
2021/04/13 08:33:44;;;;;;;12.75;3.05;;;;;;;;;;4988251;28;20137;-78
2021/04/13 08:36:20;;;;;;;16.20;5.13;;;;;;;;;;4989683;28;20058;-79
2021/04/13 08:39:00;;;;;;;12.40;4.38;;;;;;;;;;4967891;28;20022;-79
2021/04/13 08:41:31;;;;;;;11.18;4.13;;;;;;;;;;4969201;28;20100;-79
2021/04/13 08:44:20;;;;;;;12.68;3.00;;;;;;;;;;4967194;28;20509;-78
2021/04/13 08:47:02;;;;;;;8.73;2.20;;;;;;;;;;4970977;28;20545;-79
2021/04/13 08:49:31;;;;;;;7.47;1.92;;;;;;;;;;4983255;28;20029;-78
2021/04/13 08:52:17;;;;;;;9.13;2.10;;;;;;;;;;4972821;28;20022;-78
2021/04/13 08:54:49;;;;;;;11.38;2.60;;;;;;;;;;4968725;28;20026;-78
2021/04/13 08:57:35;;;;;;;9.75;3.20;;;;;;;;;;4968563;28;20041;-78
2021/04/13 09:00:22;;;;;;;8.80;2.08;;;;;;;;;;4965718;28;20044;-79
2021/04/13 09:02:58;;;;;;;9.38;2.13;;;;;;;;;;4983228;28;21409;-77
2021/04/13 09:05:35;;;;;;;6.53;1.52;;;;;;;;;;4968460;28;20026;-79
2021/04/13 09:08:24;;;;;;;9.93;1.92;;;;;;;;;;4964506;28;20121;-80
2021/04/13 09:11:00;;;;;;;9.03;2.90;;;;;;;;;;4981842;28;20053;-79
2021/04/13 09:13:33;;;;;;;10.02;2.30;;;;;;;;;;4983708;28;20354;-83
2021/04/13 09:16:18;;;;;;;10.98;2.53;;;;;;;;;;4979390;28;20034;-83
2021/04/13 09:18:46;;;;;;;11.05;1.98;;;;;;;;;;4987940;28;20034;-82
2021/04/13 09:21:35;;;;;;;10.35;1.85;;;;;;;;;;4969001;28;20322;-81
2021/04/13 09:24:18;;;;;;;6.50;1.65;;;;;;;;;;4979216;28;20026;-81
2021/04/13 09:26:59;;;;;;;9.57;1.77;;;;;;;;;;4967343;28;20069;-81
2021/04/13 09:29:50;;;;;;;8.45;1.50;;;;;;;;;;4976307;28;20051;-82
2021/04/13 09:32:30;;;;;;;10.52;2.15;;;;;;;;;;4964777;28;20030;-85
2021/04/13 09:35:18;;;;;;;8.88;2.03;;;;;;;;;;4974494;28;20088;-84
2021/04/13 09:38:04;;;;;;;10.10;2.17;;;;;;;;;;4975373;28;20039;-85
2021/04/13 09:40:50;;;;;;;8.25;2.00;;;;;;;;;;4984477;28;20046;-84
2021/04/13 09:43:36;;;;;;;8.55;1.85;;;;;;;;;;4987963;28;20030;-83
2021/04/13 09:46:22;;;;;;;9.90;2.55;;;;;;;;;;4973458;28;20042;-84
2021/04/13 09:49:01;;;;;;;7.88;2.10;;;;;;;;;;4975549;28;20065;-84
2021/04/13 09:51:43;;;;;;;9.38;2.10;;;;;;;;;;4991261;28;20034;-84
2021/04/13 09:54:29;;;;;;;16.25;2.55;;;;;;;;;;4952879;28;20157;-84
2021/04/13 09:57:14;;;;;;;8.70;2.05;;;;;;;;;;4976098;28;20073;-83
2021/04/13 10:00:01;;;;;;;8.35;1.88;;;;;;;;;;4971727;28;20042;-83
2021/04/13 10:02:47;;;;;;;10.77;3.25;;;;;;;;;;4973900;28;20030;-83
2021/04/13 10:05:16;;;;;;;8.23;2.40;;;;;;;;;;4970753;28;20034;-83
2021/04/13 10:07:58;;;;;;;10.50;2.17;;;;;;;;;;4973280;28;20035;-83
2021/04/13 10:10:47;;;;;;;9.82;2.92;;;;;;;;;;4990158;28;20030;-84
2021/04/13 10:13:33;;;;;;;7.72;2.10;;;;;;;;;;4974425;28;20114;-83
2021/04/13 10:16:19;;;;;;;9.65;2.35;;;;;;;;;;4974150;28;20037;-83
2021/04/13 10:18:48;;;;;;;;;;;;;;;;;;4975614;28;20689;-83
2021/04/13 10:21:15;;;;;;;9.52;2.05;;;;;;;;;;4972837;28;19914;-84
2021/04/13 10:23:45;;;;;;;9.73;2.10;;;;;;;;;;4979588;28;20041;-83
2021/04/13 10:26:38;;;;;;;10.68;2.15;;;;;;;;;;4984639;28;20043;-83
2021/04/13 10:29:18;;;;;;;8.30;2.00;;;;;;;;;;4987239;28;20026;-85
2021/04/13 10:32:04;;;;;;;9.10;2.22;;;;;;;;;;4972276;28;20065;-84
2021/04/13 10:34:44;;;;;;;8.93;2.22;;;;;;;;;;4987846;28;20034;-83
2021/04/13 10:37:14;;;;;;;9.32;2.30;;;;;;;;;;5004010;28;20049;-85
2021/04/13 10:39:48;;;;;;;9.80;2.72;;;;;;;;;;5015544;28;20033;-84
2021/04/13 10:42:14;;;;;;;7.35;2.13;;;;;;;;;;5001203;28;20091;-85
2021/04/13 10:45:00;;;;;;;10.68;2.20;;;;;;;;;;5011130;28;20057;-84
2021/04/13 10:47:46;;;;;;;7.57;1.77;;;;;;;;;;5022120;28;20033;-82
2021/04/13 10:50:31;;;;;;;9.27;2.03;;;;;;;;;;5008674;28;20951;-86
2021/04/13 10:53:17;;;;;;;12.38;2.83;;;;;;;;;;5007931;28;20052;-81
2021/04/13 10:55:53;;;;;;;10.18;2.53;;;;;;;;;;4991029;28;20212;-79
2021/04/13 10:58:30;;;;;;;9.60;2.63;;;;;;;;;;5004572;28;20639;-82
2021/04/13 11:01:20;;;;;;;12.25;4.97;;;;;;;;;;5012920;28;20095;-81
2021/04/13 11:04:05;;;;;;;9.55;3.42;;;;;;;;;;4965667;28;20052;-81
2021/04/13 11:06:50;;;;;;;9.75;3.78;;;;;;;;;;4965246;28;20057;-82
2021/04/13 11:09:38;;;;;;;13.30;3.05;;;;;;;;;;4980487;28;20496;-82
2021/04/13 11:12:24;;;;;;;10.82;2.33;;;;;;;;;;4980150;28;20046;-81
2021/04/13 11:15:10;;;;;;;11.40;3.22;;;;;;;;;;4982015;28;20088;-81
2021/04/13 11:17:42;;;;;;;11.97;3.23;;;;;;;;;;4968006;28;20049;-82
2021/04/13 11:20:18;;;;;;;12.57;3.05;;;;;;;;;;4964644;28;20572;-80
2021/04/13 11:23:04;;;;;;;17.95;3.88;;;;;;;;;;4985964;28;20103;-82
2021/04/13 11:25:49;;;;;;;11.70;2.50;;;;;;;;;;4988580;28;20076;-80
2021/04/13 11:28:43;;;;;;;11.15;2.83;;;;;;;;;;4982358;28;20129;-81
2021/04/13 11:31:30;;;;;;;13.38;2.78;;;;;;;;;;4902828;29;20044;-80
2021/04/13 11:34:08;;;;;;;11.18;2.53;;;;;;;;;;4905729;29;20075;-80
2021/04/13 11:36:48;;;;;;;12.80;3.10;;;;;;;;;;4907692;29;20043;-79
2021/04/13 11:39:21;;;;;;;11.82;3.20;;;;;;;;;;4904382;28;20481;-81
2021/04/13 11:42:10;;;;;;;12.27;3.58;;;;;;;;;;4892480;29;20063;-80
2021/04/13 11:45:04;;;;;;;11.57;4.07;;;;;;;;;;4908810;28;20035;-82
2021/04/13 11:47:42;;;;;;;10.68;2.95;;;;;;;;;;4902517;29;20074;-79
2021/04/13 11:50:23;;;;;;;10.68;2.97;;;;;;;;;;4907731;28;20076;-81
2021/04/13 11:52:55;;;;;;;12.40;3.17;;;;;;;;;;4911623;29;20388;-80
2021/04/13 11:55:40;;;;;;;11.40;3.15;;;;;;;;;;4906365;29;20044;-80
2021/04/13 11:58:27;;;;;;;9.65;3.15;;;;;;;;;;4903022;29;20051;-78
2021/04/13 12:01:14;;;;;;;12.88;3.65;;;;;;;;;;4910951;29;20071;-78
2021/04/13 12:04:01;;;;;;;9.77;3.20;;;;;;;;;;4915057;28;20811;-78
2021/04/13 12:06:49;;;;;;;11.23;3.45;;;;;;;;;;4912756;29;20798;-77
2021/04/13 12:09:34;;;;;;;10.90;3.45;;;;;;;;;;5012158;28;20124;-79
2021/04/13 12:12:04;;;;;;;11.02;3.63;;;;;;;;;;5007524;28;20037;-78
2021/04/13 12:14:37;;;;;;;11.32;3.88;;;;;;;;;;4976241;28;20095;-78
2021/04/13 12:17:10;;;;;;;11.80;4.25;;;;;;;;;;5015503;28;20060;-77
2021/04/13 12:19:58;;;;;;;14.00;4.20;;;;;;;;;;5011672;28;20041;-78
2021/04/13 12:22:36;;;;;;;11.13;3.22;;;;;;;;;;4991995;28;20127;-78
2021/04/13 12:25:05;;;;;;;10.57;3.50;;;;;;;;;;5008048;28;20025;-78
2021/04/13 12:27:31;;;;;;;14.38;3.65;;;;;;;;;;5011919;28;20064;-77
2021/04/13 12:30:19;;;;;;;12.45;2.90;;;;;;;;;;5008723;28;20054;-77
2021/04/13 12:32:45;;;;;;;10.80;2.63;;;;;;;;;;5016798;28;20032;-77
2021/04/13 12:35:11;;;;;;;15.13;3.30;;;;;;;;;;4985833;28;20068;-77
2021/04/13 12:37:41;;;;;;;11.18;3.88;;;;;;;;;;4988300;28;20823;-76
2021/04/13 12:40:29;;;;;;;11.88;3.15;;;;;;;;;;4965044;28;20035;-77
2021/04/13 12:43:16;;;;;;;13.23;4.63;;;;;;;;;;4970662;28;20046;-77
2021/04/13 12:45:43;;;;;;;;;;;;;;;;;;4969896;28;20046;-77
2021/04/13 12:48:17;;;;;;;11.93;3.63;;;;;;;;;;4981524;28;19917;-76
2021/04/13 12:50:47;;;;;;;12.13;2.95;;;;;;;;;;4988521;28;20125;-78
2021/04/13 12:53:19;;;;;;;15.35;3.67;;;;;;;;;;4965187;28;20122;-79
2021/04/13 12:56:00;;;;;;;14.38;4.03;;;;;;;;;;4968866;28;20125;-79
2021/04/13 12:58:30;;;;;;;12.48;2.95;;;;;;;;;;4970913;28;20460;-80
2021/04/13 13:01:03;;;;;;;10.50;3.17;;;;;;;;;;4978471;28;20026;-77
2021/04/13 13:03:40;;;;;;;9.05;2.60;;;;;;;;;;4970916;28;20038;-77
2021/04/13 13:06:20;;;;;;;11.50;2.72;;;;;;;;;;4967085;28;20580;-77
2021/04/13 13:09:15;;;;;;;11.02;3.20;;;;;;;;;;4964378;28;20717;-78
2021/04/13 13:11:43;;;;;;;10.15;2.28;;;;;;;;;;4937776;28;20042;-77
2021/04/13 13:14:14;;;;;;;9.23;2.17;;;;;;;;;;4938740;28;20046;-77
2021/04/13 13:16:43;;;;;;;11.88;3.15;;;;;;;;;;4922394;28;20687;-77
2021/04/13 13:19:24;;;;;;;10.10;2.50;;;;;;;;;;4918525;28;20173;-79
2021/04/13 13:21:53;;;;;;;11.70;2.40;;;;;;;;;;4911367;28;20722;-79
2021/04/13 13:24:26;;;;;;;10.85;2.67;;;;;;;;;;4925623;28;20121;-78
2021/04/13 13:26:54;;;;;;;8.32;2.30;;;;;;;;;;4927330;28;20062;-78
2021/04/13 13:29:24;;;;;;;11.23;2.60;;;;;;;;;;4904455;28;20043;-79
2021/04/13 13:31:55;;;;;;;9.05;2.40;;;;;;;;;;4924376;28;20083;-79
2021/04/13 13:34:26;;;;;;;10.90;2.70;;;;;;;;;;4918611;28;20082;-78
2021/04/13 13:37:15;;;;;;;12.38;2.42;;;;;;;;;;4909085;28;20043;-78
2021/04/13 13:39:42;;;;;;;11.88;3.15;;;;;;;;;;4869503;29;20033;-79
2021/04/13 13:42:13;;;;;;;9.43;2.50;;;;;;;;;;4866661;29;20047;-78
2021/04/13 13:44:41;;;;;;;11.95;2.78;;;;;;;;;;4869909;29;20060;-80
2021/04/13 13:47:26;;;;;;;8.52;2.28;;;;;;;;;;4868103;29;20549;-79
2021/04/13 13:50:01;;;;;;;9.15;2.25;;;;;;;;;;4926166;28;20031;-78
2021/04/13 13:52:37;;;;;;;9.00;2.30;;;;;;;;;;4929219;28;20474;-79
2021/04/13 13:55:11;;;;;;;10.45;2.40;;;;;;;;;;4922653;28;20062;-78
2021/04/13 13:57:39;;;;;;;10.00;2.22;;;;;;;;;;4929954;28;20114;-78
2021/04/13 14:00:07;;;;;;;12.27;2.40;;;;;;;;;;4911898;28;20047;-79
2021/04/13 14:02:41;;;;;;;10.68;2.63;;;;;;;;;;4932983;28;20151;-79
2021/04/13 14:05:35;;;;;;;9.30;2.25;;;;;;;;;;4921101;28;20027;-79
2021/04/13 14:08:08;;;;;;;11.93;2.35;;;;;;;;;;4919878;28;20039;-78
2021/04/13 14:10:37;;;;;;;11.18;2.13;;;;;;;;;;4929951;28;20146;-79
2021/04/13 14:13:07;;;;;;;8.95;2.35;;;;;;;;;;4922389;28;20586;-80
2021/04/13 14:15:39;;;;;;;9.73;2.40;;;;;;;;;;4930772;28;20047;-80
2021/04/13 14:18:23;;;;;;;11.38;2.30;;;;;;;;;;4927808;28;20515;-79
2021/04/13 14:21:05;;;;;;;11.30;2.35;;;;;;;;;;4931669;28;20039;-81
2021/04/13 14:23:33;;;;;;;9.98;2.20;;;;;;;;;;4948161;28;20394;-80
2021/04/13 14:26:12;;;;;;;12.48;2.40;;;;;;;;;;4966695;28;20657;-80
2021/04/13 14:28:40;;;;;;;8.60;2.13;;;;;;;;;;4971571;28;20635;-82
2021/04/13 14:31:13;;;;;;;10.70;2.53;;;;;;;;;;4970078;28;20065;-82
2021/04/13 14:33:39;;;;;;;11.23;2.35;;;;;;;;;;4984898;28;20030;-81
2021/04/13 14:36:08;;;;;;;9.23;2.40;;;;;;;;;;4982832;28;20054;-81
2021/04/13 14:38:35;;;;;;;11.48;2.00;;;;;;;;;;4969745;28;20093;-82
2021/04/13 14:41:02;;;;;;;11.55;2.97;;;;;;;;;;4968635;28;20034;-81
2021/04/13 14:43:29;;;;;;;10.40;2.17;;;;;;;;;;4966611;28;20478;-80
2021/04/13 14:46:01;;;;;;;10.85;2.58;;;;;;;;;;4972027;28;20104;-80
2021/04/13 14:48:32;;;;;;;17.67;3.00;;;;;;;;;;4966956;28;20117;-80
2021/04/13 14:51:00;;;;;;;11.95;2.58;;;;;;;;;;4970327;28;20401;-80
2021/04/13 14:53:29;;;;;;;11.95;2.42;;;;;;;;;;4969567;28;20038;-81
2021/04/13 14:55:55;;;;;;;10.93;2.17;;;;;;;;;;4967761;28;20041;-80
2021/04/13 14:58:23;;;;;;;9.05;1.90;;;;;;;;;;4966497;28;20030;-81
2021/04/13 15:00:53;;;;;;;8.95;2.10;;;;;;;;;;4967261;28;20654;-79
2021/04/13 15:03:22;;;;;;;11.35;2.67;;;;;;;;;;4967275;28;20182;-81
2021/04/13 15:05:50;;;;;;;8.27;2.30;;;;;;;;;;4968668;28;20070;-81
2021/04/13 15:08:20;;;;;;;10.15;2.28;;;;;;;;;;4978212;28;20083;-80
2021/04/13 15:10:47;;;;;;;9.57;2.10;;;;;;;;;;4968449;28;20803;-81
2021/04/13 15:13:17;;;;;;;10.15;2.08;;;;;;;;;;4961706;28;20121;-81
2021/04/13 15:15:45;;;;;;;11.20;2.30;;;;;;;;;;4966358;28;20885;-81
2021/04/13 15:18:16;;;;;;;10.80;2.10;;;;;;;;;;4961295;28;20037;-81
2021/04/13 15:20:44;;;;;;;8.63;2.00;;;;;;;;;;4980168;28;20048;-80